sensor_id;sensor_type;location;lat;lon;timestamp;P1;durP1;ratioP1;P2;durP2;ratioP2
16642;SDS011;8435;52.184;5.406;2022-09-09T00:01:17;1.80;;;0.90;;
16642;SDS011;8435;52.184;5.406;2022-09-09T00:03:53;1.80;;;1.07;;
16642;SDS011;8435;52.184;5.406;2022-09-09T00:06:24;0.70;;;0.70;;
16642;SDS011;8435;52.184;5.406;2022-09-09T00:08:59;0.70;;;0.70;;
16642;SDS011;8435;52.184;5.406;2022-09-09T00:11:32;1.10;;;1.00;;
16642;SDS011;8435;52.184;5.406;2022-09-09T00:14:07;0.83;;;0.80;;
16642;SDS011;8435;52.184;5.406;2022-09-09T00:16:44;0.90;;;0.90;;
16642;SDS011;8435;52.184;5.406;2022-09-09T00:19:18;0.83;;;0.83;;
16642;SDS011;8435;52.184;5.406;2022-09-09T00:21:52;0.83;;;0.83;;
16642;SDS011;8435;52.184;5.406;2022-09-09T00:24:27;0.70;;;0.70;;
16642;SDS011;8435;52.184;5.406;2022-09-09T00:27:00;1.67;;;0.87;;
16642;SDS011;8435;52.184;5.406;2022-09-09T00:29:33;1.20;;;1.10;;
16642;SDS011;8435;52.184;5.406;2022-09-09T00:32:12;0.97;;;0.97;;
16642;SDS011;8435;52.184;5.406;2022-09-09T00:34:42;1.00;;;1.00;;
16642;SDS011;8435;52.184;5.406;2022-09-09T00:37:14;1.20;;;1.10;;
16642;SDS011;8435;52.184;5.406;2022-09-09T00:39:42;1.20;;;1.20;;
16642;SDS011;8435;52.184;5.406;2022-09-09T00:42:13;2.67;;;1.03;;
16642;SDS011;8435;52.184;5.406;2022-09-09T00:44:48;2.47;;;1.40;;
16642;SDS011;8435;52.184;5.406;2022-09-09T00:47:23;1.20;;;1.10;;
16642;SDS011;8435;52.184;5.406;2022-09-09T00:50:08;1.37;;;1.27;;
16642;SDS011;8435;52.184;5.406;2022-09-09T00:52:55;1.63;;;1.23;;
16642;SDS011;8435;52.184;5.406;2022-09-09T00:55:28;1.43;;;1.30;;
16642;SDS011;8435;52.184;5.406;2022-09-09T00:58:06;1.00;;;1.00;;
16642;SDS011;8435;52.184;5.406;2022-09-09T01:00:35;1.70;;;1.20;;
16642;SDS011;8435;52.184;5.406;2022-09-09T01:03:21;2.20;;;1.53;;
16642;SDS011;8435;52.184;5.406;2022-09-09T01:06:00;1.60;;;1.50;;
16642;SDS011;8435;52.184;5.406;2022-09-09T01:08:46;1.50;;;1.40;;
16642;SDS011;8435;52.184;5.406;2022-09-09T01:11:31;1.30;;;1.20;;
16642;SDS011;8435;52.184;5.406;2022-09-09T01:14:05;1.70;;;1.60;;
16642;SDS011;8435;52.184;5.406;2022-09-09T01:16:39;1.80;;;1.70;;
16642;SDS011;8435;52.184;5.406;2022-09-09T01:19:08;1.77;;;1.53;;
16642;SDS011;8435;52.184;5.406;2022-09-09T01:21:54;1.70;;;1.60;;
16642;SDS011;8435;52.184;5.406;2022-09-09T01:24:30;1.53;;;1.43;;
16642;SDS011;8435;52.184;5.406;2022-09-09T01:27:05;1.73;;;1.63;;
16642;SDS011;8435;52.184;5.406;2022-09-09T01:29:36;1.73;;;1.63;;
16642;SDS011;8435;52.184;5.406;2022-09-09T01:35:05;1.80;;;1.70;;
16642;SDS011;8435;52.184;5.406;2022-09-09T01:37:36;2.07;;;1.87;;
16642;SDS011;8435;52.184;5.406;2022-09-09T01:40:04;2.03;;;1.73;;
16642;SDS011;8435;52.184;5.406;2022-09-09T01:42:32;1.93;;;1.80;;
16642;SDS011;8435;52.184;5.406;2022-09-09T01:44:59;2.67;;;2.07;;
16642;SDS011;8435;52.184;5.406;2022-09-09T01:47:26;1.90;;;1.80;;
16642;SDS011;8435;52.184;5.406;2022-09-09T01:49:53;4.17;;;1.70;;
16642;SDS011;8435;52.184;5.406;2022-09-09T01:52:20;2.10;;;2.00;;
16642;SDS011;8435;52.184;5.406;2022-09-09T01:54:47;2.70;;;2.13;;
16642;SDS011;8435;52.184;5.406;2022-09-09T01:57:15;3.07;;;2.10;;
16642;SDS011;8435;52.184;5.406;2022-09-09T01:59:50;2.63;;;2.07;;
16642;SDS011;8435;52.184;5.406;2022-09-09T02:02:27;2.00;;;1.90;;
16642;SDS011;8435;52.184;5.406;2022-09-09T02:05:00;2.33;;;2.13;;
16642;SDS011;8435;52.184;5.406;2022-09-09T02:07:38;2.67;;;2.47;;
16642;SDS011;8435;52.184;5.406;2022-09-09T02:10:08;3.83;;;2.30;;
16642;SDS011;8435;52.184;5.406;2022-09-09T02:12:38;2.70;;;2.50;;
16642;SDS011;8435;52.184;5.406;2022-09-09T02:15:11;2.93;;;2.37;;
16642;SDS011;8435;52.184;5.406;2022-09-09T02:17:47;3.70;;;2.83;;
16642;SDS011;8435;52.184;5.406;2022-09-09T02:20:17;3.00;;;2.67;;
16642;SDS011;8435;52.184;5.406;2022-09-09T02:22:45;3.10;;;2.80;;
16642;SDS011;8435;52.184;5.406;2022-09-09T02:25:16;3.00;;;2.77;;
16642;SDS011;8435;52.184;5.406;2022-09-09T02:27:45;2.70;;;2.50;;
16642;SDS011;8435;52.184;5.406;2022-09-09T02:30:17;3.10;;;2.80;;
16642;SDS011;8435;52.184;5.406;2022-09-09T02:32:45;3.03;;;2.77;;
16642;SDS011;8435;52.184;5.406;2022-09-09T02:35:15;3.23;;;2.87;;
16642;SDS011;8435;52.184;5.406;2022-09-09T02:37:46;3.50;;;3.13;;
16642;SDS011;8435;52.184;5.406;2022-09-09T02:40:15;2.97;;;2.77;;
16642;SDS011;8435;52.184;5.406;2022-09-09T02:42:42;3.17;;;2.97;;
16642;SDS011;8435;52.184;5.406;2022-09-09T02:45:10;3.60;;;3.33;;
16642;SDS011;8435;52.184;5.406;2022-09-09T02:47:43;3.77;;;3.17;;
16642;SDS011;8435;52.184;5.406;2022-09-09T02:50:15;3.80;;;3.50;;
16642;SDS011;8435;52.184;5.406;2022-09-09T02:52:47;3.17;;;2.97;;
16642;SDS011;8435;52.184;5.406;2022-09-09T02:55:23;3.37;;;3.07;;
16642;SDS011;8435;52.184;5.406;2022-09-09T02:58:04;3.87;;;3.27;;
16642;SDS011;8435;52.184;5.406;2022-09-09T03:00:35;3.77;;;3.33;;
16642;SDS011;8435;52.184;5.406;2022-09-09T03:03:04;4.20;;;3.17;;
16642;SDS011;8435;52.184;5.406;2022-09-09T03:05:31;3.90;;;3.33;;
16642;SDS011;8435;52.184;5.406;2022-09-09T03:07:58;4.43;;;3.27;;
16642;SDS011;8435;52.184;5.406;2022-09-09T03:10:25;4.10;;;3.40;;
16642;SDS011;8435;52.184;5.406;2022-09-09T03:12:52;3.27;;;2.97;;
16642;SDS011;8435;52.184;5.406;2022-09-09T03:15:21;3.77;;;3.40;;
16642;SDS011;8435;52.184;5.406;2022-09-09T03:17:48;4.10;;;3.80;;
16642;SDS011;8435;52.184;5.406;2022-09-09T03:20:17;4.07;;;3.70;;
16642;SDS011;8435;52.184;5.406;2022-09-09T03:22:44;4.10;;;3.80;;
16642;SDS011;8435;52.184;5.406;2022-09-09T03:25:11;3.97;;;3.67;;
16642;SDS011;8435;52.184;5.406;2022-09-09T03:27:37;4.63;;;3.60;;
16642;SDS011;8435;52.184;5.406;2022-09-09T03:30:05;7.13;;;3.87;;
16642;SDS011;8435;52.184;5.406;2022-09-09T03:32:37;4.30;;;3.90;;
16642;SDS011;8435;52.184;5.406;2022-09-09T03:35:05;3.90;;;3.60;;
16642;SDS011;8435;52.184;5.406;2022-09-09T03:37:34;4.23;;;3.83;;
16642;SDS011;8435;52.184;5.406;2022-09-09T03:40:01;4.50;;;4.10;;
16642;SDS011;8435;52.184;5.406;2022-09-09T03:42:28;4.27;;;3.87;;
16642;SDS011;8435;52.184;5.406;2022-09-09T03:44:55;3.90;;;3.60;;
16642;SDS011;8435;52.184;5.406;2022-09-09T03:47:23;4.23;;;3.83;;
16642;SDS011;8435;52.184;5.406;2022-09-09T03:49:49;4.53;;;4.13;;
16642;SDS011;8435;52.184;5.406;2022-09-09T03:52:16;4.03;;;3.80;;
16642;SDS011;8435;52.184;5.406;2022-09-09T03:54:44;4.30;;;4.00;;
16642;SDS011;8435;52.184;5.406;2022-09-09T03:57:11;4.27;;;3.97;;
16642;SDS011;8435;52.184;5.406;2022-09-09T03:59:41;4.20;;;3.80;;
16642;SDS011;8435;52.184;5.406;2022-09-09T04:02:08;4.47;;;4.10;;
16642;SDS011;8435;52.184;5.406;2022-09-09T04:04:35;4.27;;;3.93;;
16642;SDS011;8435;52.184;5.406;2022-09-09T04:07:05;4.70;;;4.20;;
16642;SDS011;8435;52.184;5.406;2022-09-09T04:09:32;4.37;;;3.97;;
16642;SDS011;8435;52.184;5.406;2022-09-09T04:12:01;4.30;;;4.00;;
16642;SDS011;8435;52.184;5.406;2022-09-09T04:14:32;5.07;;;4.37;;
16642;SDS011;8435;52.184;5.406;2022-09-09T04:16:58;4.60;;;4.30;;
16642;SDS011;8435;52.184;5.406;2022-09-09T04:19:25;4.60;;;4.30;;
16642;SDS011;8435;52.184;5.406;2022-09-09T04:21:53;5.27;;;4.23;;
16642;SDS011;8435;52.184;5.406;2022-09-09T04:24:20;4.83;;;4.33;;
16642;SDS011;8435;52.184;5.406;2022-09-09T04:26:46;4.67;;;4.10;;
16642;SDS011;8435;52.184;5.406;2022-09-09T04:29:15;4.60;;;4.20;;
16642;SDS011;8435;52.184;5.406;2022-09-09T04:31:42;4.87;;;4.47;;
16642;SDS011;8435;52.184;5.406;2022-09-09T04:34:09;5.37;;;4.90;;
16642;SDS011;8435;52.184;5.406;2022-09-09T04:36:39;4.57;;;4.17;;
16642;SDS011;8435;52.184;5.406;2022-09-09T04:39:06;4.87;;;4.47;;
16642;SDS011;8435;52.184;5.406;2022-09-09T04:41:33;4.80;;;4.40;;
16642;SDS011;8435;52.184;5.406;2022-09-09T04:44:00;4.30;;;3.90;;
16642;SDS011;8435;52.184;5.406;2022-09-09T04:46:29;5.27;;;4.20;;
16642;SDS011;8435;52.184;5.406;2022-09-09T04:48:56;4.63;;;4.00;;
16642;SDS011;8435;52.184;5.406;2022-09-09T04:51:22;4.17;;;3.83;;
16642;SDS011;8435;52.184;5.406;2022-09-09T04:53:49;4.50;;;4.10;;
16642;SDS011;8435;52.184;5.406;2022-09-09T04:56:18;4.30;;;3.90;;
16642;SDS011;8435;52.184;5.406;2022-09-09T04:58:47;5.40;;;3.63;;
16642;SDS011;8435;52.184;5.406;2022-09-09T05:01:14;4.17;;;3.77;;
16642;SDS011;8435;52.184;5.406;2022-09-09T05:03:44;4.13;;;3.73;;
16642;SDS011;8435;52.184;5.406;2022-09-09T05:06:12;4.50;;;4.03;;
16642;SDS011;8435;52.184;5.406;2022-09-09T05:08:43;4.73;;;3.70;;
16642;SDS011;8435;52.184;5.406;2022-09-09T05:11:14;5.90;;;3.70;;
16642;SDS011;8435;52.184;5.406;2022-09-09T05:13:42;4.50;;;3.67;;
16642;SDS011;8435;52.184;5.406;2022-09-09T05:16:09;3.97;;;3.60;;
16642;SDS011;8435;52.184;5.406;2022-09-09T05:18:36;4.17;;;3.77;;
16642;SDS011;8435;52.184;5.406;2022-09-09T05:21:04;4.40;;;3.87;;
16642;SDS011;8435;52.184;5.406;2022-09-09T05:23:32;3.93;;;3.60;;
16642;SDS011;8435;52.184;5.406;2022-09-09T05:25:59;4.07;;;3.77;;
16642;SDS011;8435;52.184;5.406;2022-09-09T05:28:28;3.83;;;3.23;;
16642;SDS011;8435;52.184;5.406;2022-09-09T05:30:56;3.80;;;3.27;;
16642;SDS011;8435;52.184;5.406;2022-09-09T05:33:24;5.20;;;3.10;;
16642;SDS011;8435;52.184;5.406;2022-09-09T05:35:55;4.43;;;3.50;;
16642;SDS011;8435;52.184;5.406;2022-09-09T05:38:24;5.53;;;3.63;;
16642;SDS011;8435;52.184;5.406;2022-09-09T05:40:51;3.60;;;2.90;;
16642;SDS011;8435;52.184;5.406;2022-09-09T05:43:18;4.10;;;3.20;;
16642;SDS011;8435;52.184;5.406;2022-09-09T05:45:45;3.63;;;2.97;;
16642;SDS011;8435;52.184;5.406;2022-09-09T05:48:12;3.60;;;3.30;;
16642;SDS011;8435;52.184;5.406;2022-09-09T05:50:40;5.43;;;3.70;;
16642;SDS011;8435;52.184;5.406;2022-09-09T05:53:08;4.40;;;3.97;;
16642;SDS011;8435;52.184;5.406;2022-09-09T05:55:36;4.50;;;3.27;;
16642;SDS011;8435;52.184;5.406;2022-09-09T05:58:03;7.20;;;5.63;;
16642;SDS011;8435;52.184;5.406;2022-09-09T06:00:30;6.87;;;4.60;;
16642;SDS011;8435;52.184;5.406;2022-09-09T06:02:57;4.03;;;3.63;;
16642;SDS011;8435;52.184;5.406;2022-09-09T06:05:23;4.17;;;3.43;;
16642;SDS011;8435;52.184;5.406;2022-09-09T06:07:52;4.13;;;3.60;;
16642;SDS011;8435;52.184;5.406;2022-09-09T06:10:19;5.47;;;3.13;;
16642;SDS011;8435;52.184;5.406;2022-09-09T06:12:47;5.47;;;3.00;;
16642;SDS011;8435;52.184;5.406;2022-09-09T06:15:14;3.73;;;3.10;;
16642;SDS011;8435;52.184;5.406;2022-09-09T06:17:42;6.80;;;3.43;;
16642;SDS011;8435;52.184;5.406;2022-09-09T06:20:10;4.23;;;3.20;;
16642;SDS011;8435;52.184;5.406;2022-09-09T06:22:38;4.87;;;4.40;;
16642;SDS011;8435;52.184;5.406;2022-09-09T06:25:06;5.23;;;4.67;;
16642;SDS011;8435;52.184;5.406;2022-09-09T06:27:34;3.93;;;3.50;;
16642;SDS011;8435;52.184;5.406;2022-09-09T06:30:02;5.50;;;3.63;;
16642;SDS011;8435;52.184;5.406;2022-09-09T06:32:29;4.10;;;2.87;;
16642;SDS011;8435;52.184;5.406;2022-09-09T06:34:58;5.40;;;3.07;;
16642;SDS011;8435;52.184;5.406;2022-09-09T06:37:26;5.30;;;3.13;;
16642;SDS011;8435;52.184;5.406;2022-09-09T06:39:53;5.00;;;3.27;;
16642;SDS011;8435;52.184;5.406;2022-09-09T06:42:20;5.63;;;3.60;;
16642;SDS011;8435;52.184;5.406;2022-09-09T06:44:47;5.17;;;3.13;;
16642;SDS011;8435;52.184;5.406;2022-09-09T06:47:15;5.50;;;3.20;;
16642;SDS011;8435;52.184;5.406;2022-09-09T06:49:42;4.47;;;3.30;;
16642;SDS011;8435;52.184;5.406;2022-09-09T06:52:11;6.10;;;3.40;;
16642;SDS011;8435;52.184;5.406;2022-09-09T06:54:38;5.67;;;3.33;;
16642;SDS011;8435;52.184;5.406;2022-09-09T06:57:04;4.20;;;3.03;;
16642;SDS011;8435;52.184;5.406;2022-09-09T06:59:32;4.37;;;3.27;;
16642;SDS011;8435;52.184;5.406;2022-09-09T07:01:59;4.80;;;2.93;;
16642;SDS011;8435;52.184;5.406;2022-09-09T07:04:27;4.80;;;3.10;;
16642;SDS011;8435;52.184;5.406;2022-09-09T07:06:54;3.83;;;3.07;;
16642;SDS011;8435;52.184;5.406;2022-09-09T07:09:21;6.27;;;2.77;;
16642;SDS011;8435;52.184;5.406;2022-09-09T07:11:49;5.47;;;2.60;;
16642;SDS011;8435;52.184;5.406;2022-09-09T07:14:18;4.73;;;2.30;;
16642;SDS011;8435;52.184;5.406;2022-09-09T07:16:45;4.23;;;2.10;;
16642;SDS011;8435;52.184;5.406;2022-09-09T07:19:13;3.30;;;2.57;;
16642;SDS011;8435;52.184;5.406;2022-09-09T07:21:41;4.33;;;1.90;;
16642;SDS011;8435;52.184;5.406;2022-09-09T07:24:09;3.73;;;2.27;;
16642;SDS011;8435;52.184;5.406;2022-09-09T07:26:36;4.47;;;2.50;;
16642;SDS011;8435;52.184;5.406;2022-09-09T07:29:04;7.10;;;4.33;;
16642;SDS011;8435;52.184;5.406;2022-09-09T07:31:32;4.47;;;2.90;;
16642;SDS011;8435;52.184;5.406;2022-09-09T07:34:00;4.60;;;3.27;;
16642;SDS011;8435;52.184;5.406;2022-09-09T07:36:28;5.03;;;2.50;;
16642;SDS011;8435;52.184;5.406;2022-09-09T07:38:58;7.77;;;2.53;;
16642;SDS011;8435;52.184;5.406;2022-09-09T07:41:27;4.00;;;2.20;;
16642;SDS011;8435;52.184;5.406;2022-09-09T07:43:57;5.83;;;2.30;;
16642;SDS011;8435;52.184;5.406;2022-09-09T07:46:25;3.57;;;2.43;;
16642;SDS011;8435;52.184;5.406;2022-09-09T07:48:54;5.63;;;2.20;;
16642;SDS011;8435;52.184;5.406;2022-09-09T07:51:25;4.93;;;2.55;;
16642;SDS011;8435;52.184;5.406;2022-09-09T07:53:53;3.63;;;2.00;;
16642;SDS011;8435;52.184;5.406;2022-09-09T07:56:25;6.73;;;2.00;;
16642;SDS011;8435;52.184;5.406;2022-09-09T07:58:53;4.53;;;2.47;;
16642;SDS011;8435;52.184;5.406;2022-09-09T08:01:22;4.23;;;2.57;;
16642;SDS011;8435;52.184;5.406;2022-09-09T08:03:55;6.10;;;2.53;;
16642;SDS011;8435;52.184;5.406;2022-09-09T08:06:26;2.97;;;2.08;;
16642;SDS011;8435;52.184;5.406;2022-09-09T08:08:53;5.32;;;2.30;;
16642;SDS011;8435;52.184;5.406;2022-09-09T08:11:22;4.03;;;1.92;;
16642;SDS011;8435;52.184;5.406;2022-09-09T08:13:52;3.58;;;2.22;;
16642;SDS011;8435;52.184;5.406;2022-09-09T08:16:20;3.22;;;2.00;;
16642;SDS011;8435;52.184;5.406;2022-09-09T08:18:49;3.67;;;2.15;;
16642;SDS011;8435;52.184;5.406;2022-09-09T08:21:17;5.72;;;1.73;;
16642;SDS011;8435;52.184;5.406;2022-09-09T08:23:46;4.10;;;2.08;;
16642;SDS011;8435;52.184;5.406;2022-09-09T08:26:17;3.17;;;1.80;;
16642;SDS011;8435;52.184;5.406;2022-09-09T08:28:49;3.97;;;2.17;;
16642;SDS011;8435;52.184;5.406;2022-09-09T08:31:17;4.68;;;2.17;;
16642;SDS011;8435;52.184;5.406;2022-09-09T08:33:46;4.85;;;2.08;;
16642;SDS011;8435;52.184;5.406;2022-09-09T08:36:14;4.38;;;2.47;;
16642;SDS011;8435;52.184;5.406;2022-09-09T08:38:42;4.22;;;2.25;;
16642;SDS011;8435;52.184;5.406;2022-09-09T08:41:15;3.00;;;1.95;;
16642;SDS011;8435;52.184;5.406;2022-09-09T08:44:03;4.43;;;2.20;;
16642;SDS011;8435;52.184;5.406;2022-09-09T08:46:36;4.70;;;1.77;;
16642;SDS011;8435;52.184;5.406;2022-09-09T08:49:29;3.40;;;2.13;;
16642;SDS011;8435;52.184;5.406;2022-09-09T08:52:23;3.58;;;1.73;;
16642;SDS011;8435;52.184;5.406;2022-09-09T08:54:53;5.25;;;2.42;;
16642;SDS011;8435;52.184;5.406;2022-09-09T08:57:25;4.13;;;1.80;;
16642;SDS011;8435;52.184;5.406;2022-09-09T08:59:55;8.10;;;2.95;;
16642;SDS011;8435;52.184;5.406;2022-09-09T09:02:23;5.90;;;2.53;;
16642;SDS011;8435;52.184;5.406;2022-09-09T09:05:06;5.80;;;2.08;;
16642;SDS011;8435;52.184;5.406;2022-09-09T09:07:44;4.03;;;1.92;;
16642;SDS011;8435;52.184;5.406;2022-09-09T09:10:24;5.50;;;1.75;;
16642;SDS011;8435;52.184;5.406;2022-09-09T09:12:59;3.45;;;2.00;;
16642;SDS011;8435;52.184;5.406;2022-09-09T09:15:32;4.75;;;2.50;;
16642;SDS011;8435;52.184;5.406;2022-09-09T09:18:03;4.30;;;2.00;;
16642;SDS011;8435;52.184;5.406;2022-09-09T09:20:36;4.17;;;2.00;;
16642;SDS011;8435;52.184;5.406;2022-09-09T09:23:12;3.67;;;1.87;;
16642;SDS011;8435;52.184;5.406;2022-09-09T09:25:48;4.03;;;2.38;;
16642;SDS011;8435;52.184;5.406;2022-09-09T09:28:23;5.97;;;2.03;;
16642;SDS011;8435;52.184;5.406;2022-09-09T09:30:53;3.58;;;1.88;;
16642;SDS011;8435;52.184;5.406;2022-09-09T09:33:26;2.58;;;2.08;;
16642;SDS011;8435;52.184;5.406;2022-09-09T09:36:01;5.63;;;3.35;;
16642;SDS011;8435;52.184;5.406;2022-09-09T09:38:33;5.85;;;2.78;;
16642;SDS011;8435;52.184;5.406;2022-09-09T09:41:01;5.75;;;1.92;;
16642;SDS011;8435;52.184;5.406;2022-09-09T09:43:29;7.32;;;2.15;;
16642;SDS011;8435;52.184;5.406;2022-09-09T09:45:58;4.78;;;2.10;;
16642;SDS011;8435;52.184;5.406;2022-09-09T09:48:26;6.60;;;2.28;;
16642;SDS011;8435;52.184;5.406;2022-09-09T09:50:54;4.15;;;2.03;;
16642;SDS011;8435;52.184;5.406;2022-09-09T09:53:23;3.47;;;1.90;;
16642;SDS011;8435;52.184;5.406;2022-09-09T09:55:53;5.25;;;2.30;;
16642;SDS011;8435;52.184;5.406;2022-09-09T09:58:23;3.42;;;1.92;;
16642;SDS011;8435;52.184;5.406;2022-09-09T10:00:53;4.88;;;2.40;;
16642;SDS011;8435;52.184;5.406;2022-09-09T10:03:25;4.07;;;2.13;;
16642;SDS011;8435;52.184;5.406;2022-09-09T10:05:54;4.97;;;2.05;;
16642;SDS011;8435;52.184;5.406;2022-09-09T10:08:22;3.92;;;1.98;;
16642;SDS011;8435;52.184;5.406;2022-09-09T10:11:03;4.55;;;2.33;;
16642;SDS011;8435;52.184;5.406;2022-09-09T10:13:41;5.33;;;2.43;;
16642;SDS011;8435;52.184;5.406;2022-09-09T10:16:23;3.42;;;2.10;;
16642;SDS011;8435;52.184;5.406;2022-09-09T10:18:59;4.63;;;2.03;;
16642;SDS011;8435;52.184;5.406;2022-09-09T10:27:32;4.95;;;2.05;;
16642;SDS011;8435;52.184;5.406;2022-09-09T10:30:13;4.80;;;1.85;;
16642;SDS011;8435;52.184;5.406;2022-09-09T10:32:45;4.72;;;1.80;;
16642;SDS011;8435;52.184;5.406;2022-09-09T10:35:28;4.80;;;1.90;;
16642;SDS011;8435;52.184;5.406;2022-09-09T10:38:04;6.35;;;2.53;;
16642;SDS011;8435;52.184;5.406;2022-09-09T10:40:42;6.32;;;2.75;;
16642;SDS011;8435;52.184;5.406;2022-09-09T10:43:27;5.10;;;2.47;;
16642;SDS011;8435;52.184;5.406;2022-09-09T10:46:06;3.78;;;1.70;;
16642;SDS011;8435;52.184;5.406;2022-09-09T10:48:42;2.75;;;1.83;;
16642;SDS011;8435;52.184;5.406;2022-09-09T10:51:23;4.07;;;2.10;;
16642;SDS011;8435;52.184;5.406;2022-09-09T10:54:05;4.85;;;1.83;;
16642;SDS011;8435;52.184;5.406;2022-09-09T10:56:41;3.95;;;1.77;;
16642;SDS011;8435;52.184;5.406;2022-09-09T10:59:11;3.90;;;2.00;;
16642;SDS011;8435;52.184;5.406;2022-09-09T11:01:43;3.63;;;2.08;;
16642;SDS011;8435;52.184;5.406;2022-09-09T11:04:15;4.57;;;2.40;;
16642;SDS011;8435;52.184;5.406;2022-09-09T11:06:49;2.50;;;1.80;;
16642;SDS011;8435;52.184;5.406;2022-09-09T11:09:22;3.35;;;2.10;;
16642;SDS011;8435;52.184;5.406;2022-09-09T11:11:56;5.55;;;1.85;;
16642;SDS011;8435;52.184;5.406;2022-09-09T11:14:26;3.60;;;1.90;;
16642;SDS011;8435;52.184;5.406;2022-09-09T11:16:59;5.20;;;2.00;;
16642;SDS011;8435;52.184;5.406;2022-09-09T11:19:30;3.70;;;2.38;;
16642;SDS011;8435;52.184;5.406;2022-09-09T11:22:02;3.65;;;2.30;;
16642;SDS011;8435;52.184;5.406;2022-09-09T11:24:41;5.78;;;2.40;;
16642;SDS011;8435;52.184;5.406;2022-09-09T11:27:14;4.05;;;2.60;;
16642;SDS011;8435;52.184;5.406;2022-09-09T11:35:38;3.42;;;2.25;;
16642;SDS011;8435;52.184;5.406;2022-09-09T11:38:18;2.83;;;1.90;;
16642;SDS011;8435;52.184;5.406;2022-09-09T11:40:47;2.58;;;2.08;;
16642;SDS011;8435;52.184;5.406;2022-09-09T11:43:25;3.65;;;1.83;;
16642;SDS011;8435;52.184;5.406;2022-09-09T11:45:56;3.28;;;2.10;;
16642;SDS011;8435;52.184;5.406;2022-09-09T11:48:29;4.90;;;2.00;;
16642;SDS011;8435;52.184;5.406;2022-09-09T11:51:00;3.58;;;1.70;;
16642;SDS011;8435;52.184;5.406;2022-09-09T11:53:31;3.85;;;1.73;;
16642;SDS011;8435;52.184;5.406;2022-09-09T11:56:00;2.35;;;1.63;;
16642;SDS011;8435;52.184;5.406;2022-09-09T11:58:28;2.90;;;1.90;;
16642;SDS011;8435;52.184;5.406;2022-09-09T12:01:12;3.83;;;1.83;;
16642;SDS011;8435;52.184;5.406;2022-09-09T12:03:41;3.97;;;1.98;;
16642;SDS011;8435;52.184;5.406;2022-09-09T12:06:11;4.90;;;2.38;;
16642;SDS011;8435;52.184;5.406;2022-09-09T12:08:43;4.57;;;1.90;;
16642;SDS011;8435;52.184;5.406;2022-09-09T12:11:22;3.65;;;1.83;;
16642;SDS011;8435;52.184;5.406;2022-09-09T12:13:54;3.72;;;2.42;;
16642;SDS011;8435;52.184;5.406;2022-09-09T12:16:30;3.50;;;1.83;;
16642;SDS011;8435;52.184;5.406;2022-09-09T12:19:05;2.15;;;1.80;;
16642;SDS011;8435;52.184;5.406;2022-09-09T12:21:51;5.53;;;1.88;;
16642;SDS011;8435;52.184;5.406;2022-09-09T12:24:29;3.83;;;2.30;;
16642;SDS011;8435;52.184;5.406;2022-09-09T12:27:04;3.35;;;2.00;;
16642;SDS011;8435;52.184;5.406;2022-09-09T12:29:43;3.55;;;1.92;;
16642;SDS011;8435;52.184;5.406;2022-09-09T12:32:19;4.97;;;2.10;;
16642;SDS011;8435;52.184;5.406;2022-09-09T12:34:51;1.98;;;1.75;;
16642;SDS011;8435;52.184;5.406;2022-09-09T12:37:25;3.10;;;1.70;;
16642;SDS011;8435;52.184;5.406;2022-09-09T12:39:57;4.00;;;1.83;;
16642;SDS011;8435;52.184;5.406;2022-09-09T12:42:28;3.20;;;1.65;;
16642;SDS011;8435;52.184;5.406;2022-09-09T12:45:15;2.95;;;1.90;;
16642;SDS011;8435;52.184;5.406;2022-09-09T12:47:44;2.92;;;1.92;;
16642;SDS011;8435;52.184;5.406;2022-09-09T12:50:15;6.28;;;3.17;;
16642;SDS011;8435;52.184;5.406;2022-09-09T12:52:45;2.85;;;2.20;;
16642;SDS011;8435;52.184;5.406;2022-09-09T12:55:17;3.70;;;2.20;;
16642;SDS011;8435;52.184;5.406;2022-09-09T12:57:46;3.40;;;1.90;;
16642;SDS011;8435;52.184;5.406;2022-09-09T13:00:17;2.92;;;2.05;;
16642;SDS011;8435;52.184;5.406;2022-09-09T13:02:46;2.50;;;1.90;;
16642;SDS011;8435;52.184;5.406;2022-09-09T13:05:18;4.45;;;2.70;;
16642;SDS011;8435;52.184;5.406;2022-09-09T13:07:47;4.78;;;2.42;;
16642;SDS011;8435;52.184;5.406;2022-09-09T13:10:15;4.68;;;2.38;;
16642;SDS011;8435;52.184;5.406;2022-09-09T13:12:54;2.67;;;2.22;;
16642;SDS011;8435;52.184;5.406;2022-09-09T13:15:22;4.28;;;2.30;;
16642;SDS011;8435;52.184;5.406;2022-09-09T13:17:52;2.50;;;2.00;;
16642;SDS011;8435;52.184;5.406;2022-09-09T13:20:20;2.92;;;1.90;;
16642;SDS011;8435;52.184;5.406;2022-09-09T13:22:49;3.13;;;2.10;;
16642;SDS011;8435;52.184;5.406;2022-09-09T13:25:20;5.07;;;2.00;;
16642;SDS011;8435;52.184;5.406;2022-09-09T13:27:52;3.58;;;1.88;;
16642;SDS011;8435;52.184;5.406;2022-09-09T13:30:24;2.55;;;1.70;;
16642;SDS011;8435;52.184;5.406;2022-09-09T13:33:17;3.05;;;2.10;;
16642;SDS011;8435;52.184;5.406;2022-09-09T13:35:48;2.53;;;1.50;;
16642;SDS011;8435;52.184;5.406;2022-09-09T13:38:18;3.40;;;1.80;;
16642;SDS011;8435;52.184;5.406;2022-09-09T13:40:58;3.78;;;2.00;;
16642;SDS011;8435;52.184;5.406;2022-09-09T13:43:30;2.65;;;2.10;;
16642;SDS011;8435;52.184;5.406;2022-09-09T13:45:58;3.83;;;2.30;;
16642;SDS011;8435;52.184;5.406;2022-09-09T13:48:26;3.10;;;2.30;;
16642;SDS011;8435;52.184;5.406;2022-09-09T13:50:59;3.55;;;2.10;;
16642;SDS011;8435;52.184;5.406;2022-09-09T13:53:28;2.60;;;2.10;;
16642;SDS011;8435;52.184;5.406;2022-09-09T13:55:55;3.55;;;2.45;;
16642;SDS011;8435;52.184;5.406;2022-09-09T13:58:24;3.85;;;1.92;;
16642;SDS011;8435;52.184;5.406;2022-09-09T14:00:55;2.97;;;1.95;;
16642;SDS011;8435;52.184;5.406;2022-09-09T14:03:22;3.47;;;2.35;;
16642;SDS011;8435;52.184;5.406;2022-09-09T14:05:49;3.50;;;2.22;;
16642;SDS011;8435;52.184;5.406;2022-09-09T14:08:20;4.45;;;2.50;;
16642;SDS011;8435;52.184;5.406;2022-09-09T14:10:51;3.97;;;2.33;;
16642;SDS011;8435;52.184;5.406;2022-09-09T14:13:24;4.20;;;2.15;;
16642;SDS011;8435;52.184;5.406;2022-09-09T14:15:51;3.22;;;2.20;;
16642;SDS011;8435;52.184;5.406;2022-09-09T14:18:18;4.65;;;2.45;;
16642;SDS011;8435;52.184;5.406;2022-09-09T14:20:47;3.88;;;2.17;;
16642;SDS011;8435;52.184;5.406;2022-09-09T14:23:15;3.53;;;1.90;;
16642;SDS011;8435;52.184;5.406;2022-09-09T14:25:43;2.88;;;2.15;;
16642;SDS011;8435;52.184;5.406;2022-09-09T14:28:12;3.10;;;2.05;;
16642;SDS011;8435;52.184;5.406;2022-09-09T14:30:41;3.58;;;2.20;;
16642;SDS011;8435;52.184;5.406;2022-09-09T14:33:09;2.00;;;1.83;;
16642;SDS011;8435;52.184;5.406;2022-09-09T14:35:37;2.63;;;1.95;;
16642;SDS011;8435;52.184;5.406;2022-09-09T14:38:06;4.60;;;2.30;;
16642;SDS011;8435;52.184;5.406;2022-09-09T14:40:33;3.13;;;2.20;;
16642;SDS011;8435;52.184;5.406;2022-09-09T14:43:01;2.72;;;1.80;;
16642;SDS011;8435;52.184;5.406;2022-09-09T14:45:28;2.80;;;2.10;;
16642;SDS011;8435;52.184;5.406;2022-09-09T14:47:56;2.63;;;1.70;;
16642;SDS011;8435;52.184;5.406;2022-09-09T14:50:26;2.70;;;1.70;;
16642;SDS011;8435;52.184;5.406;2022-09-09T14:52:54;2.88;;;2.30;;
16642;SDS011;8435;52.184;5.406;2022-09-09T14:55:20;3.13;;;2.40;;
16642;SDS011;8435;52.184;5.406;2022-09-09T14:57:47;4.68;;;2.45;;
16642;SDS011;8435;52.184;5.406;2022-09-09T15:00:15;6.00;;;2.30;;
16642;SDS011;8435;52.184;5.406;2022-09-09T15:02:42;4.55;;;2.30;;
16642;SDS011;8435;52.184;5.406;2022-09-09T15:05:10;3.00;;;2.03;;
16642;SDS011;8435;52.184;5.406;2022-09-09T15:07:37;4.55;;;2.88;;
16642;SDS011;8435;52.184;5.406;2022-09-09T15:10:04;2.28;;;2.08;;
16642;SDS011;8435;52.184;5.406;2022-09-09T15:12:34;3.92;;;2.70;;
16642;SDS011;8435;52.184;5.406;2022-09-09T15:15:01;4.10;;;2.47;;
16642;SDS011;8435;52.184;5.406;2022-09-09T15:17:29;3.30;;;1.90;;
16642;SDS011;8435;52.184;5.406;2022-09-09T15:19:55;2.72;;;1.92;;
16642;SDS011;8435;52.184;5.406;2022-09-09T15:22:23;2.88;;;2.10;;
16642;SDS011;8435;52.184;5.406;2022-09-09T15:24:50;4.80;;;2.53;;
16642;SDS011;8435;52.184;5.406;2022-09-09T15:27:23;3.50;;;2.67;;
16642;SDS011;8435;52.184;5.406;2022-09-09T15:29:50;1.90;;;1.80;;
16642;SDS011;8435;52.184;5.406;2022-09-09T15:32:17;2.40;;;1.48;;
16642;SDS011;8435;52.184;5.406;2022-09-09T15:34:44;2.95;;;1.70;;
16642;SDS011;8435;52.184;5.406;2022-09-09T15:37:11;2.03;;;1.42;;